Time;durP1;ratioP1;P1;durP2;ratioP2;P2;SDS_P1;SDS_P2;PMS_P1;PMS_P2;Temp;Humidity;BMP_temperature;BMP_pressure;BME280_temperature;BME280_humidity;BME280_pressure;Samples;Min_cycle;Max_cycle;Signal;HPM_P1;HPM_P2
2022/06/10 00:01:38;;;;;;;20.15;3.03;;;;;;;;;;4866144;29;20059;-67
2022/06/10 00:04:03;;;;;;;16.35;2.92;;;;;;;;;;4867985;29;20306;-65
2022/06/10 00:06:29;;;;;;;18.00;3.15;;;;;;;;;;4865926;29;20107;-68
2022/06/10 00:08:56;;;;;;;15.57;3.38;;;;;;;;;;4865887;29;22069;-69
2022/06/10 00:11:22;;;;;;;17.88;3.30;;;;;;;;;;4846232;29;20044;-69
2022/06/10 00:13:47;;;;;;;19.27;3.42;;;;;;;;;;4864700;29;20028;-69
2022/06/10 00:16:17;;;;;;;16.77;3.25;;;;;;;;;;4866866;29;20827;-71
2022/06/10 00:18:42;;;;;;;22.70;4.03;;;;;;;;;;4844627;29;20094;-69
2022/06/10 00:21:09;;;;;;;19.98;5.35;;;;;;;;;;4867087;29;20071;-70
2022/06/10 00:23:34;;;;;;;29.25;7.95;;;;;;;;;;4865773;29;20044;-70
2022/06/10 00:26:02;;;;;;;31.85;7.30;;;;;;;;;;4849970;29;22578;-70
2022/06/10 00:28:27;;;;;;;32.30;12.88;;;;;;;;;;4864395;29;20143;-70
2022/06/10 00:30:53;;;;;;;29.50;9.63;;;;;;;;;;4851097;29;20093;-70
2022/06/10 00:33:24;;;;;;;26.35;7.28;;;;;;;;;;4848286;29;21117;-69
2022/06/10 00:35:49;;;;;;;32.45;8.70;;;;;;;;;;4864735;29;20044;-70
2022/06/10 00:38:18;;;;;;;36.15;9.05;;;;;;;;;;4864962;29;20047;-70
2022/06/10 00:40:48;;;;;;;27.42;7.78;;;;;;;;;;4864644;29;20040;-70
2022/06/10 00:43:15;;;;;;;29.47;7.43;;;;;;;;;;4865479;29;20032;-70
2022/06/10 00:45:44;;;;;;;30.73;6.78;;;;;;;;;;4864772;29;20046;-67
2022/06/10 00:48:13;;;;;;;20.80;7.45;;;;;;;;;;4865624;29;20088;-69
2022/06/10 00:50:38;;;;;;;26.50;7.20;;;;;;;;;;4865252;29;20066;-69
2022/06/10 00:53:05;;;;;;;24.63;6.65;;;;;;;;;;4864158;29;20044;-69
2022/06/10 00:55:31;;;;;;;25.13;7.18;;;;;;;;;;4865537;29;20074;-71
2022/06/10 00:58:26;;;;;;;30.20;7.97;;;;;;;;;;4864809;29;20567;-69
2022/06/10 01:00:54;;;;;;;23.73;6.10;;;;;;;;;;4855584;29;20131;-70
2022/06/10 01:03:19;;;;;;;20.58;5.47;;;;;;;;;;4865621;29;20859;-69
2022/06/10 01:05:45;;;;;;;22.73;5.22;;;;;;;;;;4863875;29;20051;-68
2022/06/10 01:08:13;;;;;;;26.17;6.13;;;;;;;;;;4831594;29;21130;-67
2022/06/10 01:10:55;;;;;;;29.35;7.90;;;;;;;;;;4865373;29;20041;-69
2022/06/10 01:13:35;;;;;;;25.52;6.25;;;;;;;;;;4865220;29;20045;-70
2022/06/10 01:16:07;;;;;;;24.70;5.20;;;;;;;;;;4865033;29;20759;-69
2022/06/10 01:18:47;;;;;;;29.92;7.40;;;;;;;;;;4865879;29;20040;-69
2022/06/10 01:21:29;;;;;;;21.45;6.00;;;;;;;;;;4864863;29;20128;-68
2022/06/10 01:24:06;;;;;;;20.60;5.68;;;;;;;;;;4866836;29;20043;-68
2022/06/10 01:29:46;;;;;;;21.50;7.07;;;;;;;;;;4866910;29;20492;-69
2022/06/10 01:32:17;;;;;;;27.67;7.18;;;;;;;;;;4847100;29;20187;-68
2022/06/10 01:35:13;;;;;;;19.38;5.38;;;;;;;;;;4866194;29;22459;-68
2022/06/10 01:37:42;;;;;;;22.75;5.47;;;;;;;;;;4853368;29;20107;-68
2022/06/10 01:40:18;;;;;;;22.20;5.80;;;;;;;;;;4865719;29;20197;-67
2022/06/10 01:42:53;;;;;;;23.20;5.85;;;;;;;;;;4864854;29;20040;-68
2022/06/10 01:45:27;;;;;;;19.10;5.93;;;;;;;;;;4864711;29;20146;-69
2022/06/10 01:48:09;;;;;;;23.73;5.95;;;;;;;;;;4866455;29;22449;-70
2022/06/10 01:50:39;;;;;;;20.73;5.30;;;;;;;;;;4865039;29;20747;-69
2022/06/10 01:53:13;;;;;;;20.23;4.70;;;;;;;;;;4866456;29;20119;-69
2022/06/10 01:55:57;;;;;;;23.77;5.53;;;;;;;;;;4865491;29;20091;-69
2022/06/10 01:58:32;;;;;;;19.85;5.30;;;;;;;;;;4866241;29;20044;-68
2022/06/10 02:01:02;;;;;;;21.73;6.07;;;;;;;;;;4867212;29;20047;-69
2022/06/10 02:03:37;;;;;;;22.55;5.47;;;;;;;;;;4865188;29;20080;-68
2022/06/10 02:06:14;;;;;;;21.40;5.72;;;;;;;;;;4866356;29;20036;-68
2022/06/10 02:08:56;;;;;;;19.88;5.72;;;;;;;;;;4859162;29;20048;-69
2022/06/10 02:11:21;;;;;;;;;;;;;;;;;;4866635;29;20050;-69
2022/06/10 02:14:01;;;;;;;21.95;5.60;;;;;;;;;;4866899;29;19915;-69
2022/06/10 02:16:30;;;;;;;19.25;6.07;;;;;;;;;;4865438;29;20288;-69
2022/06/10 02:19:01;;;;;;;18.48;6.72;;;;;;;;;;4865324;29;20051;-67
2022/06/10 02:21:33;;;;;;;19.92;7.95;;;;;;;;;;4865661;29;20912;-68
2022/06/10 02:24:00;;;;;;;13.30;3.65;;;;;;;;;;4864787;29;20024;-68
2022/06/10 02:26:26;;;;;;;13.55;2.78;;;;;;;;;;4865462;29;20115;-65
2022/06/10 02:28:53;;;;;;;13.95;2.88;;;;;;;;;;4866324;29;20040;-68
2022/06/10 02:31:27;;;;;;;12.90;3.60;;;;;;;;;;4866047;29;20068;-68
2022/06/10 02:33:53;;;;;;;24.65;8.60;;;;;;;;;;4865355;29;20956;-68
2022/06/10 02:36:35;;;;;;;22.20;5.90;;;;;;;;;;4865982;29;21541;-69
2022/06/10 02:39:00;;;;;;;21.77;7.57;;;;;;;;;;4848764;29;20032;-69
2022/06/10 02:41:42;;;;;;;23.65;10.88;;;;;;;;;;4866016;29;20087;-70
2022/06/10 02:44:22;;;;;;;21.10;9.35;;;;;;;;;;4865673;29;20044;-69
2022/06/10 02:46:51;;;;;;;26.50;9.65;;;;;;;;;;4864898;29;20898;-68
2022/06/10 02:49:18;;;;;;;24.42;10.15;;;;;;;;;;4865806;29;20334;-68
2022/06/10 02:51:46;;;;;;;27.27;10.15;;;;;;;;;;4865253;29;20139;-69
2022/06/10 02:54:15;;;;;;;31.95;11.35;;;;;;;;;;4844458;29;20095;-69
2022/06/10 02:56:40;;;;;;;27.23;10.05;;;;;;;;;;4870255;29;20040;-69
2022/06/10 03:02:03;;;;;;;23.60;9.40;;;;;;;;;;4865827;29;20032;-69
2022/06/10 03:04:53;;;;;;;22.10;8.07;;;;;;;;;;4872103;29;20044;-69
2022/06/10 03:07:28;;;;;;;18.50;7.53;;;;;;;;;;4827293;29;20038;-69
2022/06/10 03:10:08;;;;;;;23.13;7.75;;;;;;;;;;4871462;29;20029;-70
2022/06/10 03:12:37;;;;;;;18.73;7.20;;;;;;;;;;4871677;29;20036;-68
2022/06/10 03:15:14;;;;;;;27.58;8.55;;;;;;;;;;4854239;29;20135;-70
2022/06/10 03:17:45;;;;;;;23.70;7.15;;;;;;;;;;4871563;29;20046;-69
2022/06/10 03:20:19;;;;;;;21.63;6.90;;;;;;;;;;4852196;29;20596;-71
2022/06/10 03:22:50;;;;;;;26.73;8.88;;;;;;;;;;4871034;29;20873;-69
2022/06/10 03:25:42;;;;;;;20.65;8.10;;;;;;;;;;4850486;29;20040;-69
2022/06/10 03:28:17;;;;;;;24.95;8.55;;;;;;;;;;4867657;29;20956;-69
2022/06/10 03:30:54;;;;;;;31.70;8.90;;;;;;;;;;4870110;29;20210;-69
2022/06/10 03:33:30;;;;;;;26.50;9.57;;;;;;;;;;4872649;29;20040;-70
2022/06/10 03:36:02;;;;;;;16.77;3.97;;;;;;;;;;4871275;29;20047;-70
2022/06/10 03:38:30;;;;;;;17.92;5.13;;;;;;;;;;4869757;29;20036;-69
2022/06/10 03:40:56;;;;;;;22.25;5.25;;;;;;;;;;4870842;29;20044;-69
2022/06/10 03:43:23;;;;;;;21.77;4.97;;;;;;;;;;4856361;29;20059;-69
2022/06/10 03:45:56;;;;;;;15.73;4.10;;;;;;;;;;4871776;29;20036;-68
2022/06/10 03:48:22;;;;;;;19.35;4.55;;;;;;;;;;4870470;29;20824;-70
2022/06/10 03:50:49;;;;;;;18.20;4.45;;;;;;;;;;4870873;29;20044;-70
2022/06/10 03:53:15;;;;;;;19.00;4.45;;;;;;;;;;4870988;29;20040;-69
2022/06/10 03:55:41;;;;;;;18.80;4.53;;;;;;;;;;4871533;29;20056;-67
2022/06/10 03:58:07;;;;;;;25.17;5.07;;;;;;;;;;4870572;29;20165;-68
2022/06/10 04:00:32;;;;;;;22.88;4.45;;;;;;;;;;4869955;29;20315;-68
2022/06/10 04:02:57;;;;;;;21.35;4.13;;;;;;;;;;4871323;29;20036;-70
2022/06/10 04:05:23;;;;;;;16.08;3.60;;;;;;;;;;4867854;29;20036;-68
2022/06/10 04:07:49;;;;;;;20.08;4.45;;;;;;;;;;4869568;29;20881;-69
2022/06/10 04:10:19;;;;;;;14.55;3.83;;;;;;;;;;4867777;29;20282;-69
2022/06/10 04:12:45;;;;;;;19.42;4.43;;;;;;;;;;4851591;29;20044;-69
2022/06/10 04:15:14;;;;;;;15.23;4.40;;;;;;;;;;4867723;29;21540;-69
2022/06/10 04:17:40;;;;;;;17.05;3.88;;;;;;;;;;4850454;29;20074;-68
2022/06/10 04:20:05;;;;;;;15.38;4.65;;;;;;;;;;4868031;29;20036;-68
2022/06/10 04:22:31;;;;;;;14.65;4.65;;;;;;;;;;4868891;29;20138;-68
2022/06/10 04:24:56;;;;;;;20.95;4.80;;;;;;;;;;4845575;29;20048;-67
2022/06/10 04:27:23;;;;;;;18.33;4.20;;;;;;;;;;4868064;29;20100;-68
2022/06/10 04:29:49;;;;;;;22.30;5.20;;;;;;;;;;4868553;29;20043;-68
2022/06/10 04:32:14;;;;;;;20.55;4.35;;;;;;;;;;4867647;29;20036;-67
2022/06/10 04:34:40;;;;;;;21.20;4.28;;;;;;;;;;4851789;29;20052;-66
2022/06/10 04:37:06;;;;;;;24.90;5.25;;;;;;;;;;4863705;29;21751;-68
2022/06/10 04:39:31;;;;;;;24.70;4.72;;;;;;;;;;4866843;29;20060;-67
2022/06/10 04:41:57;;;;;;;23.48;5.15;;;;;;;;;;4866620;29;20047;-67
2022/06/10 04:44:22;;;;;;;23.27;4.90;;;;;;;;;;4849320;29;20742;-67
2022/06/10 04:46:47;;;;;;;18.10;4.43;;;;;;;;;;4866916;29;21265;-66
2022/06/10 04:49:13;;;;;;;17.40;4.07;;;;;;;;;;4832384;29;20055;-67
2022/06/10 04:51:38;;;;;;;17.40;3.95;;;;;;;;;;4866571;29;20120;-66
2022/06/10 04:54:07;;;;;;;16.45;3.58;;;;;;;;;;4862961;29;20039;-66
2022/06/10 04:56:35;;;;;;;26.30;4.47;;;;;;;;;;4868251;29;20044;-68
2022/06/10 04:59:00;;;;;;;18.73;3.20;;;;;;;;;;4867151;29;20187;-67
2022/06/10 05:01:25;;;;;;;18.17;3.88;;;;;;;;;;4866828;29;20124;-67
2022/06/10 05:03:51;;;;;;;17.83;3.55;;;;;;;;;;4847121;29;20036;-67
2022/06/10 05:06:16;;;;;;;17.65;3.78;;;;;;;;;;4844172;29;20041;-67
2022/06/10 05:08:41;;;;;;;17.08;3.10;;;;;;;;;;4852980;29;20573;-66
2022/06/10 05:11:07;;;;;;;16.02;4.55;;;;;;;;;;4866371;29;20171;-66
2022/06/10 05:13:34;;;;;;;17.77;3.85;;;;;;;;;;4866033;29;20076;-66
2022/06/10 05:15:59;;;;;;;14.55;4.20;;;;;;;;;;4867075;29;20056;-67
2022/06/10 05:18:24;;;;;;;17.83;3.53;;;;;;;;;;4864900;29;20195;-67
2022/06/10 05:20:51;;;;;;;18.48;3.88;;;;;;;;;;4864692;29;20079;-67
2022/06/10 05:23:19;;;;;;;19.23;4.28;;;;;;;;;;4851921;29;20044;-68
2022/06/10 05:25:45;;;;;;;12.68;3.85;;;;;;;;;;4868430;29;20029;-67
2022/06/10 05:28:11;;;;;;;21.27;6.15;;;;;;;;;;4865819;29;20047;-67
2022/06/10 05:30:39;;;;;;;16.83;4.50;;;;;;;;;;4861413;29;20040;-67
2022/06/10 05:33:05;;;;;;;19.27;5.95;;;;;;;;;;4863087;29;20040;-69
2022/06/10 05:35:31;;;;;;;28.80;9.40;;;;;;;;;;4866322;29;20057;-69
2022/06/10 05:37:57;;;;;;;33.00;11.98;;;;;;;;;;4865256;29;20043;-68
2022/06/10 05:40:23;;;;;;;33.78;10.75;;;;;;;;;;4830406;29;21783;-67
2022/06/10 05:42:48;;;;;;;24.73;10.60;;;;;;;;;;4866737;29;20768;-67
2022/06/10 05:45:17;;;;;;;21.08;9.95;;;;;;;;;;4865906;29;20055;-68
2022/06/10 05:47:47;;;;;;;22.83;10.57;;;;;;;;;;4867112;29;20120;-67
2022/06/10 05:50:14;;;;;;;22.45;10.77;;;;;;;;;;4856993;29;20095;-67
2022/06/10 05:52:40;;;;;;;25.80;10.20;;;;;;;;;;4864453;29;20104;-67
2022/06/10 05:55:11;;;;;;;23.45;12.02;;;;;;;;;;4861738;29;20056;-67
2022/06/10 05:57:37;;;;;;;22.25;9.25;;;;;;;;;;4863523;29;20475;-67
2022/06/10 06:00:04;;;;;;;23.27;10.73;;;;;;;;;;4864022;29;20361;-70
2022/06/10 06:02:29;;;;;;;25.83;8.63;;;;;;;;;;4864133;29;20492;-69
2022/06/10 06:04:55;;;;;;;22.60;9.02;;;;;;;;;;4863493;29;20852;-67
2022/06/10 06:07:22;;;;;;;28.17;15.40;;;;;;;;;;4846112;29;20115;-67
2022/06/10 06:09:50;;;;;;;16.25;8.55;;;;;;;;;;4864445;29;20127;-68
2022/06/10 06:12:16;;;;;;;20.17;6.50;;;;;;;;;;4859270;29;20203;-67
2022/06/10 06:14:44;;;;;;;20.95;7.90;;;;;;;;;;4859683;29;20050;-67
2022/06/10 06:17:10;;;;;;;19.98;7.38;;;;;;;;;;4815506;29;20644;-68
2022/06/10 06:19:36;;;;;;;23.52;9.30;;;;;;;;;;4863304;29;20210;-67
2022/06/10 06:22:01;;;;;;;20.52;8.07;;;;;;;;;;4842930;29;20079;-67
2022/06/10 06:24:26;;;;;;;27.98;9.43;;;;;;;;;;4863817;29;21597;-68
2022/06/10 06:26:52;;;;;;;31.48;9.55;;;;;;;;;;4864325;29;20169;-68
2022/06/10 06:29:23;;;;;;;20.02;7.55;;;;;;;;;;4863492;29;20028;-68
2022/06/10 06:31:50;;;;;;;22.00;8.27;;;;;;;;;;4862517;29;20032;-67
2022/06/10 06:34:15;;;;;;;19.60;6.57;;;;;;;;;;4840095;29;20036;-67
2022/06/10 06:36:45;;;;;;;20.50;6.78;;;;;;;;;;4864402;29;20337;-67
2022/06/10 06:39:14;;;;;;;20.98;8.00;;;;;;;;;;4846151;29;20123;-67
2022/06/10 06:41:39;;;;;;;24.38;8.93;;;;;;;;;;4863595;29;20509;-68
2022/06/10 06:44:05;;;;;;;19.05;8.07;;;;;;;;;;4843620;29;20622;-69
2022/06/10 06:46:34;;;;;;;24.45;11.50;;;;;;;;;;4859748;29;20047;-67
2022/06/10 06:49:00;;;;;;;18.75;8.20;;;;;;;;;;4862924;29;20040;-67
2022/06/10 06:51:26;;;;;;;21.42;8.88;;;;;;;;;;4864436;29;20715;-67
2022/06/10 06:53:51;;;;;;;17.38;7.80;;;;;;;;;;4845761;29;20087;-67
2022/06/10 06:56:17;;;;;;;21.60;8.35;;;;;;;;;;4862319;29;20055;-68
2022/06/10 06:58:42;;;;;;;18.63;6.20;;;;;;;;;;4861499;29;20128;-66
2022/06/10 07:01:07;;;;;;;18.67;6.80;;;;;;;;;;4860517;29;20909;-67
2022/06/10 07:03:33;;;;;;;17.52;6.60;;;;;;;;;;4863611;29;20066;-67
2022/06/10 07:05:58;;;;;;;20.33;7.85;;;;;;;;;;4860282;29;20135;-67
2022/06/10 07:08:30;;;;;;;19.17;7.55;;;;;;;;;;4862616;29;20144;-68
2022/06/10 07:10:59;;;;;;;14.80;5.95;;;;;;;;;;4864179;29;20068;-68
2022/06/10 07:13:25;;;;;;;18.40;7.90;;;;;;;;;;4862668;29;20099;-67
2022/06/10 07:15:50;;;;;;;13.23;5.95;;;;;;;;;;4860321;29;20810;-67
2022/06/10 07:18:19;;;;;;;15.27;4.88;;;;;;;;;;4862234;29;20036;-67
2022/06/10 07:20:44;;;;;;;12.10;3.05;;;;;;;;;;4858226;29;20047;-68
2022/06/10 07:23:10;;;;;;;17.30;3.65;;;;;;;;;;4858431;29;20043;-67
2022/06/10 07:25:38;;;;;;;16.08;3.85;;;;;;;;;;4853313;29;20040;-68
2022/06/10 07:28:04;;;;;;;15.52;3.10;;;;;;;;;;4860576;29;20040;-67
2022/06/10 07:30:31;;;;;;;14.15;3.55;;;;;;;;;;4842404;29;20036;-70
2022/06/10 07:32:57;;;;;;;16.30;3.53;;;;;;;;;;4863876;29;20040;-70
2022/06/10 07:35:22;;;;;;;17.70;3.70;;;;;;;;;;4825307;29;20768;-70
2022/06/10 07:37:48;;;;;;;15.00;3.28;;;;;;;;;;4842649;29;20040;-71
2022/06/10 07:43:03;;;;;;;15.90;3.55;;;;;;;;;;4860867;29;20585;-70
2022/06/10 07:45:29;;;;;;;16.08;3.08;;;;;;;;;;4842063;29;20059;-70
2022/06/10 07:47:56;;;;;;;13.48;3.10;;;;;;;;;;4866810;29;20120;-70
2022/06/10 07:50:24;;;;;;;15.02;3.20;;;;;;;;;;4865900;29;20929;-70
2022/06/10 07:52:50;;;;;;;16.23;3.50;;;;;;;;;;4867256;29;20164;-69
2022/06/10 07:55:20;;;;;;;12.95;3.70;;;;;;;;;;4865944;29;20080;-69
2022/06/10 07:57:46;;;;;;;18.48;4.07;;;;;;;;;;4866727;29;20060;-69
2022/06/10 08:00:13;;;;;;;15.00;3.85;;;;;;;;;;4864823;29;20036;-70
2022/06/10 08:02:40;;;;;;;12.95;3.42;;;;;;;;;;4852611;29;20123;-68
2022/06/10 08:05:07;;;;;;;13.48;3.60;;;;;;;;;;4865874;29;20044;-69
2022/06/10 08:07:33;;;;;;;13.52;2.92;;;;;;;;;;4868124;29;20147;-69
2022/06/10 08:09:58;;;;;;;15.63;4.07;;;;;;;;;;4853160;29;20044;-69
2022/06/10 08:12:24;;;;;;;20.25;4.40;;;;;;;;;;4863574;29;20047;-69
2022/06/10 08:14:49;;;;;;;15.05;3.60;;;;;;;;;;4862254;29;20060;-69
2022/06/10 08:17:14;;;;;;;16.98;4.35;;;;;;;;;;4848506;29;20044;-68
2022/06/10 08:19:42;;;;;;;17.40;4.07;;;;;;;;;;4867249;29;20040;-69
2022/06/10 08:24:52;;;;;;;19.48;8.05;;;;;;;;;;4863267;29;20367;-68
2022/06/10 08:27:18;;;;;;;22.52;10.07;;;;;;;;;;4848130;29;20404;-68
2022/06/10 08:29:44;;;;;;;18.98;8.25;;;;;;;;;;4864885;29;20584;-69
2022/06/10 08:32:09;;;;;;;27.92;13.00;;;;;;;;;;4844594;29;20040;-69
2022/06/10 08:34:36;;;;;;;25.50;14.55;;;;;;;;;;4864235;29;20072;-68
2022/06/10 08:37:02;;;;;;;20.25;10.07;;;;;;;;;;4865584;29;20044;-70
2022/06/10 08:39:27;;;;;;;15.95;6.00;;;;;;;;;;4864222;29;20036;-69
2022/06/10 08:42:31;;;;;;;15.65;4.63;;;;;;;;;;4863010;29;20428;-71
2022/06/10 08:45:02;;;;;;;19.17;4.05;;;;;;;;;;4803961;29;20574;-69
2022/06/10 08:47:37;;;;;;;18.38;4.03;;;;;;;;;;4805986;29;20270;-69
2022/06/10 08:50:18;;;;;;;16.52;4.50;;;;;;;;;;4820590;29;20924;-69
2022/06/10 08:52:50;;;;;;;20.23;4.65;;;;;;;;;;4865640;29;20273;-69
2022/06/10 08:55:39;;;;;;;16.63;4.63;;;;;;;;;;4845449;29;20120;-70
2022/06/10 08:58:12;;;;;;;19.52;4.47;;;;;;;;;;4855414;29;20040;-69
2022/06/10 09:00:40;;;;;;;19.88;4.40;;;;;;;;;;4856463;29;20257;-69
2022/06/10 09:03:15;;;;;;;17.33;4.07;;;;;;;;;;4860615;29;20572;-70
2022/06/10 09:05:45;;;;;;;15.77;4.60;;;;;;;;;;4859393;29;20039;-70
2022/06/10 09:08:15;;;;;;;14.85;4.10;;;;;;;;;;4860463;29;20325;-70
2022/06/10 09:10:55;;;;;;;20.38;4.93;;;;;;;;;;4860122;29;20051;-68
2022/06/10 09:13:27;;;;;;;18.85;6.15;;;;;;;;;;4862147;29;20628;-69
2022/06/10 09:15:52;;;;;;;13.10;5.18;;;;;;;;;;4861763;29;20052;-69
2022/06/10 09:18:41;;;;;;;11.30;3.45;;;;;;;;;;4865027;29;20488;-70
2022/06/10 09:21:16;;;;;;;13.07;4.20;;;;;;;;;;4855455;29;20650;-72
2022/06/10 09:23:44;;;;;;;10.30;2.97;;;;;;;;;;4863074;29;20042;-71
2022/06/10 09:26:13;;;;;;;11.88;3.55;;;;;;;;;;4863420;29;20040;-73
2022/06/10 09:28:39;;;;;;;11.70;3.00;;;;;;;;;;4863142;29;21988;-70
2022/06/10 09:31:13;;;;;;;10.27;2.70;;;;;;;;;;4859665;29;21583;-71
2022/06/10 09:34:02;;;;;;;9.05;2.55;;;;;;;;;;4864418;29;20130;-71
2022/06/10 09:36:31;;;;;;;9.57;2.80;;;;;;;;;;4854205;29;20048;-71
2022/06/10 09:40:35;;;;;;;7.40;2.70;;;;;;;;;;4863104;29;20402;-72
2022/06/10 09:42:04;;;;;;;12.20;3.33;;;;;;;;;;4864526;29;20067;-72
2022/06/10 09:44:29;;;;;;;14.43;3.22;;;;;;;;;;4864352;29;20091;-70
2022/06/10 09:47:07;;;;;;;17.30;3.55;;;;;;;;;;4863755;29;20647;-69
2022/06/10 09:49:38;;;;;;;16.48;3.00;;;;;;;;;;4860260;29;20149;-70
2022/06/10 09:52:08;;;;;;;13.30;2.92;;;;;;;;;;4867672;29;20127;-71
2022/06/10 09:54:52;;;;;;;11.88;2.60;;;;;;;;;;4866858;29;20079;-74
2022/06/10 09:57:35;;;;;;;10.18;2.25;;;;;;;;;;4866882;29;20235;-73
2022/06/10 10:00:33;;;;;;;15.70;3.33;;;;;;;;;;4863339;29;20287;-74
2022/06/10 10:03:34;;;;;;;14.82;3.50;;;;;;;;;;4842820;29;20454;-71
2022/06/10 10:06:06;;;;;;;15.27;3.17;;;;;;;;;;4866423;29;20040;-75
2022/06/10 10:08:47;;;;;;;8.82;2.67;;;;;;;;;;4843178;29;20032;-69
2022/06/10 10:11:28;;;;;;;11.50;2.90;;;;;;;;;;4848109;29;20670;-75
2022/06/10 10:14:00;;;;;;;14.85;2.92;;;;;;;;;;4864180;29;20051;-72
2022/06/10 10:16:39;;;;;;;22.42;3.25;;;;;;;;;;4868951;29;20405;-75
2022/06/10 10:19:24;;;;;;;18.95;3.00;;;;;;;;;;4866420;29;20151;-73
2022/06/10 10:21:58;;;;;;;13.60;2.85;;;;;;;;;;4863651;29;20403;-75
2022/06/10 10:24:24;;;;;;;16.10;3.42;;;;;;;;;;4869058;29;20040;-74
2022/06/10 10:26:51;;;;;;;8.38;3.08;;;;;;;;;;4871441;29;20036;-74
2022/06/10 10:29:19;;;;;;;15.57;3.00;;;;;;;;;;4858700;29;20964;-78
2022/06/10 10:31:47;;;;;;;16.70;3.13;;;;;;;;;;4865861;29;20111;-75
2022/06/10 10:34:18;;;;;;;14.23;3.00;;;;;;;;;;4849187;29;20367;-76
2022/06/10 10:36:44;;;;;;;13.40;2.90;;;;;;;;;;4866703;29;20044;-74
2022/06/10 10:39:15;;;;;;;17.55;3.38;;;;;;;;;;4866008;29;20751;-75
2022/06/10 10:41:44;;;;;;;19.77;3.17;;;;;;;;;;4867669;29;20131;-73
2022/06/10 10:44:45;;;;;;;9.18;3.17;;;;;;;;;;4848961;29;20135;-76
2022/06/10 10:47:15;;;;;;;13.27;3.17;;;;;;;;;;4808340;29;20372;-75
2022/06/10 10:49:43;;;;;;;12.48;3.10;;;;;;;;;;4858660;29;20063;-75
2022/06/10 10:52:13;;;;;;;17.77;3.67;;;;;;;;;;4846211;29;20036;-74
2022/06/10 10:54:43;;;;;;;16.30;3.63;;;;;;;;;;4869038;29;20152;-73
2022/06/10 10:57:40;;;;;;;19.05;3.67;;;;;;;;;;4869400;29;20092;-77
2022/06/10 11:00:10;;;;;;;16.55;3.70;;;;;;;;;;4850162;29;20044;-73
2022/06/10 11:02:38;;;;;;;14.98;3.25;;;;;;;;;;4861185;29;20255;-76
2022/06/10 11:05:15;;;;;;;19.17;3.17;;;;;;;;;;4862554;29;20652;-72
2022/06/10 11:07:42;;;;;;;16.30;3.70;;;;;;;;;;4864278;29;20040;-69
2022/06/10 11:10:12;;;;;;;16.10;3.70;;;;;;;;;;4850725;29;21187;-69
2022/06/10 11:12:39;;;;;;;15.00;3.28;;;;;;;;;;4868977;29;20174;-72
2022/06/10 11:15:12;;;;;;;13.77;3.67;;;;;;;;;;4867312;29;20139;-69
2022/06/10 11:17:37;;;;;;;17.25;3.72;;;;;;;;;;4851254;29;20048;-70
2022/06/10 11:20:17;;;;;;;11.00;3.10;;;;;;;;;;4851294;29;20091;-70
2022/06/10 11:22:44;;;;;;;17.48;4.07;;;;;;;;;;4870589;29;20046;-69
2022/06/10 11:25:14;;;;;;;17.08;3.63;;;;;;;;;;4869951;29;20060;-72
2022/06/10 11:27:49;;;;;;;16.95;4.03;;;;;;;;;;4867481;29;20127;-72
2022/06/10 11:30:14;;;;;;;23.42;4.15;;;;;;;;;;4870578;29;20909;-73
2022/06/10 11:32:40;;;;;;;16.67;3.97;;;;;;;;;;4856479;29;20028;-71
2022/06/10 11:35:32;;;;;;;14.07;3.33;;;;;;;;;;4869105;29;20056;-70
2022/06/10 11:38:05;;;;;;;21.98;3.75;;;;;;;;;;4867596;29;20048;-69
2022/06/10 11:40:53;;;;;;;15.95;3.45;;;;;;;;;;4869033;29;20040;-72
2022/06/10 11:43:22;;;;;;;20.50;4.55;;;;;;;;;;4851012;29;20143;-72
2022/06/10 11:46:06;;;;;;;19.23;3.63;;;;;;;;;;4861371;29;20052;-70
2022/06/10 11:48:45;;;;;;;16.15;3.70;;;;;;;;;;4862047;29;20036;-72
2022/06/10 11:51:27;;;;;;;14.25;3.90;;;;;;;;;;4864530;29;20071;-69
2022/06/10 11:53:58;;;;;;;13.85;3.60;;;;;;;;;;4868139;29;21088;-70
2022/06/10 12:02:08;;;;;;;14.25;3.20;;;;;;;;;;4872287;29;20036;-71
2022/06/10 12:04:40;;;;;;;16.08;3.70;;;;;;;;;;4868093;29;20985;-70
2022/06/10 12:07:10;;;;;;;13.82;3.42;;;;;;;;;;4853932;29;20036;-70
2022/06/10 12:09:47;;;;;;;15.90;3.63;;;;;;;;;;4868142;29;20044;-69
2022/06/10 12:12:24;;;;;;;13.48;3.47;;;;;;;;;;4870064;29;20112;-71
2022/06/10 12:14:54;;;;;;;15.48;3.40;;;;;;;;;;4866428;29;20067;-70
2022/06/10 12:17:32;;;;;;;14.05;3.42;;;;;;;;;;4865887;29;20079;-69
2022/06/10 12:20:04;;;;;;;19.20;4.03;;;;;;;;;;4867171;29;20041;-70
2022/06/10 12:22:30;;;;;;;14.20;3.70;;;;;;;;;;4866847;29;20119;-69
2022/06/10 12:24:56;;;;;;;17.67;4.07;;;;;;;;;;4865773;29;20805;-69
2022/06/10 12:27:25;;;;;;;14.68;3.75;;;;;;;;;;4868115;29;20410;-70
2022/06/10 12:30:10;;;;;;;15.02;3.72;;;;;;;;;;4864649;29;20457;-69
2022/06/10 12:32:45;;;;;;;14.13;3.58;;;;;;;;;;4854210;29;20040;-71
2022/06/10 12:35:10;;;;;;;17.95;3.88;;;;;;;;;;4863730;29;20048;-70
2022/06/10 12:37:41;;;;;;;15.45;3.75;;;;;;;;;;4866990;29;20028;-71
2022/06/10 12:40:13;;;;;;;11.48;3.05;;;;;;;;;;4864567;29;20094;-70
2022/06/10 12:42:40;;;;;;;16.08;3.53;;;;;;;;;;4864192;29;20064;-69
2022/06/10 12:45:13;;;;;;;19.55;3.30;;;;;;;;;;4863171;29;20106;-69
2022/06/10 12:47:40;;;;;;;15.23;3.30;;;;;;;;;;4863522;29;20048;-70
2022/06/10 12:50:19;;;;;;;15.88;3.85;;;;;;;;;;4863104;29;20047;-69
2022/06/10 12:52:46;;;;;;;;;;;;;;;;;;4844820;29;20032;-70
2022/06/10 12:55:31;;;;;;;18.40;3.38;;;;;;;;;;4863975;29;20361;-68
2022/06/10 12:57:56;;;;;;;16.40;3.38;;;;;;;;;;4862175;29;20203;-69
2022/06/10 13:00:22;;;;;;;15.57;3.78;;;;;;;;;;4865296;29;20143;-68
2022/06/10 13:02:49;;;;;;;16.08;3.17;;;;;;;;;;4863761;29;20612;-68
2022/06/10 13:05:41;;;;;;;20.10;3.70;;;;;;;;;;4863733;29;20040;-69
2022/06/10 13:08:25;;;;;;;20.35;3.50;;;;;;;;;;4859013;29;20071;-69
2022/06/10 13:10:54;;;;;;;22.38;3.78;;;;;;;;;;4863060;29;20135;-67
2022/06/10 13:13:25;;;;;;;15.10;3.20;;;;;;;;;;4863154;29;20036;-68
2022/06/10 13:15:52;;;;;;;14.65;3.20;;;;;;;;;;4844359;29;20051;-67
2022/06/10 13:18:17;;;;;;;14.98;3.17;;;;;;;;;;4862331;29;20212;-68
2022/06/10 13:20:44;;;;;;;12.60;3.08;;;;;;;;;;4863089;29;20718;-67
2022/06/10 13:23:12;;;;;;;14.32;3.63;;;;;;;;;;4865985;29;20032;-67
2022/06/10 13:25:39;;;;;;;12.82;2.75;;;;;;;;;;4867797;29;20771;-66
2022/06/10 13:28:14;;;;;;;15.85;3.03;;;;;;;;;;4867928;29;20039;-66
2022/06/10 13:30:40;;;;;;;12.73;2.55;;;;;;;;;;4864447;29;20155;-67
2022/06/10 13:33:09;;;;;;;15.10;3.28;;;;;;;;;;4868756;29;20040;-67
2022/06/10 13:35:43;;;;;;;13.10;2.70;;;;;;;;;;4867957;29;20079;-67
2022/06/10 13:38:19;;;;;;;15.90;3.03;;;;;;;;;;4866926;29;21241;-67
2022/06/10 13:40:46;;;;;;;12.25;2.92;;;;;;;;;;4863620;29;20047;-67
2022/06/10 13:43:18;;;;;;;13.38;2.83;;;;;;;;;;4863373;29;20999;-68
2022/06/10 13:45:45;;;;;;;12.32;2.97;;;;;;;;;;4859675;29;20243;-68
2022/06/10 13:48:15;;;;;;;11.27;2.47;;;;;;;;;;4862111;29;20058;-68
2022/06/10 13:51:09;;;;;;;12.23;3.03;;;;;;;;;;4859139;29;20153;-68
2022/06/10 13:53:38;;;;;;;11.68;2.28;;;;;;;;;;4857396;29;20390;-68
2022/06/10 13:56:06;;;;;;;12.23;2.25;;;;;;;;;;4860163;29;20143;-68
2022/06/10 13:58:36;;;;;;;11.50;2.47;;;;;;;;;;4859529;29;20164;-68
2022/06/10 14:01:05;;;;;;;10.93;2.20;;;;;;;;;;4862901;29;20956;-68
2022/06/10 14:03:32;;;;;;;10.70;2.15;;;;;;;;;;4862844;29;20047;-68
2022/06/10 14:06:05;;;;;;;7.95;1.98;;;;;;;;;;4860050;29;20075;-68
2022/06/10 14:08:33;;;;;;;11.18;1.70;;;;;;;;;;4865923;29;20036;-69
2022/06/10 14:11:12;;;;;;;9.97;1.87;;;;;;;;;;4861413;29;20036;-70
2022/06/10 14:13:47;;;;;;;9.68;1.92;;;;;;;;;;4862527;29;20128;-68
2022/06/10 14:16:16;;;;;;;7.13;1.75;;;;;;;;;;4862709;29;20051;-71
2022/06/10 14:18:43;;;;;;;6.63;1.92;;;;;;;;;;4864669;29;20132;-70
2022/06/10 14:21:12;;;;;;;7.85;2.00;;;;;;;;;;4847947;29;20876;-72
2022/06/10 14:23:57;;;;;;;10.10;2.33;;;;;;;;;;4842507;29;20063;-69
2022/06/10 14:26:24;;;;;;;8.57;1.65;;;;;;;;;;4860905;29;20040;-68
2022/06/10 14:29:05;;;;;;;9.15;2.10;;;;;;;;;;4864117;29;20964;-68
2022/06/10 14:31:32;;;;;;;9.05;1.88;;;;;;;;;;4864342;29;20040;-69
2022/06/10 14:33:58;;;;;;;9.82;2.00;;;;;;;;;;4842829;29;20064;-70
2022/06/10 14:36:27;;;;;;;12.98;2.10;;;;;;;;;;4844407;29;20051;-70
2022/06/10 14:39:11;;;;;;;9.65;2.17;;;;;;;;;;4843278;29;20063;-70
2022/06/10 14:41:57;;;;;;;9.82;1.92;;;;;;;;;;4865425;29;20043;-68
2022/06/10 14:44:25;;;;;;;7.05;1.80;;;;;;;;;;4862775;29;20167;-71
2022/06/10 14:47:10;;;;;;;11.27;1.70;;;;;;;;;;4861841;29;21055;-69
2022/06/10 14:49:40;;;;;;;10.48;2.50;;;;;;;;;;4860207;29;20119;-69
2022/06/10 14:52:09;;;;;;;8.57;1.92;;;;;;;;;;4862993;29;20051;-69
2022/06/10 14:54:35;;;;;;;7.40;1.50;;;;;;;;;;4860711;29;22571;-68
2022/06/10 14:57:00;;;;;;;9.95;1.90;;;;;;;;;;4846684;29;20060;-70
2022/06/10 14:59:27;;;;;;;10.38;1.98;;;;;;;;;;4826361;29;20043;-67
2022/06/10 15:01:54;;;;;;;8.00;1.77;;;;;;;;;;4864825;29;20024;-68
2022/06/10 15:04:19;;;;;;;10.02;2.22;;;;;;;;;;4861898;29;20425;-68
2022/06/10 15:07:05;;;;;;;8.50;1.98;;;;;;;;;;4862503;29;20033;-66
2022/06/10 15:09:38;;;;;;;7.65;2.20;;;;;;;;;;4862535;29;20688;-67